Martin Challenger — WDB2346 — position and weather

sailwx.info

Track history (hours):
 
Tides and Currents Weather Stations Pressure Air Temp Water Temp Dewpoint Dewpoint Depression Visibility Wind Speed Wind Dir Waves Ship Positions

Martin Challenger

Owner: MARTIN OPERATING PARTNERSHIP LP, VIDOR, TX. More information available from US FCC via Universal Licensing System and Coast Guard Vessel Documentation Center.

Last reported at 2014-Oct-01 10:28 UTC. Time now 2014-Oct-01 12:21 UTC.
Position N 29°45' W 095°06'.

Length 20 m; draft 2.9 m.

MMSI: 366874920.

Date/timePositionNaut miles runAvg speedWind from/ knotsBaromVisibWave heightAir tempDewpointWater temp
2014-Oct-01 10:28N 29°45' W 095°06'1 1.0
2014-Oct-01 09:33N 29°46' W 095°07'1 0.9
2014-Oct-01 08:27N 29°45' W 095°06'1 0.7
2014-Oct-01 07:33N 29°46' W 095°05'0 0.1
2014-Oct-01 06:27N 29°46' W 095°05'0 0.0
2014-Oct-01 05:30N 29°46' W 095°05'0 0.0
2014-Oct-01 04:23N 29°46' W 095°05'0 0.0
2014-Oct-01 03:09N 29°46' W 095°05'0 0.0
2014-Oct-01 01:29N 29°46' W 095°05'0 0.0
2014-Oct-01 00:29N 29°46' W 095°05'0 0.0
2014-Sep-30 23:31N 29°46' W 095°05'1 0.6
2014-Sep-30 22:33N 29°46' W 095°06'1 0.2
2014-Sep-30 20:08N 29°46' W 095°05'0 0.1
2014-Sep-30 19:33N 29°46' W 095°05'0 0.0
2014-Sep-30 11:33N 29°46' W 095°05'0 0.0
2014-Sep-30 00:13N 29°46' W 095°05'0 0.0
2014-Sep-29 23:33N 29°46' W 095°05'1 0.2
2014-Sep-29 19:27N 29°46' W 095°06'1 1.0
2014-Sep-29 18:33N 29°46' W 095°05'0 0.0
2014-Sep-29 17:21N 29°46' W 095°05'0 0.0
2014-Sep-29 16:33N 29°46' W 095°05'0 0.0
2014-Sep-29 15:32N 29°46' W 095°05'0 0.0
2014-Sep-29 14:33N 29°46' W 095°05'1 0.1
2014-Sep-29 00:11N 29°47' W 095°05'0 0.0
2014-Sep-28 23:33N 29°47' W 095°05'0 0.0
2014-Sep-28 22:33N 29°47' W 095°05'0 0.0
2014-Sep-28 21:33N 29°47' W 095°05'0 0.0
2014-Sep-28 20:33N 29°47' W 095°05'0 0.0
2014-Sep-28 19:33N 29°47' W 095°05'0 0.0
2014-Sep-28 18:33N 29°47' W 095°05'0 0.0
2014-Sep-28 17:33N 29°47' W 095°05'0 0.0
2014-Sep-28 16:33N 29°47' W 095°05'0 0.0
2014-Sep-28 15:33N 29°47' W 095°05'0 0.0
2014-Sep-28 14:33N 29°47' W 095°05'0 0.0
2014-Sep-28 13:33N 29°47' W 095°05'0 0.0
2014-Sep-28 08:23N 29°47' W 095°05'0 0.1
2014-Sep-28 07:29N 29°47' W 095°05'0 0.1
2014-Sep-28 05:33N 29°46' W 095°05'4 3.6
2014-Sep-28 04:33N 29°44' W 095°02'4 4.1
2014-Sep-28 03:33N 29°41' W 094°59'6 5.6
2014-Sep-28 02:33N 29°35' W 094°56'  
2014-Sep-22 19:21N 29°25' W 094°44'4 5.0
2014-Sep-22 18:28N 29°27' W 094°40'15 3.7
2014-Sep-22 14:27N 29°34' W 094°25'5 3.4
2014-Sep-22 13:06N 29°37' W 094°21'2 4.4
2014-Sep-22 12:33N 29°38' W 094°19'  
Track history (hours):
 
Tides and Currents Weather Stations Pressure Air Temp Water Temp Dewpoint Dewpoint Depression Visibility Wind Speed Wind Dir Waves Ship Positions

Martin Challenger

Owner: MARTIN OPERATING PARTNERSHIP LP, VIDOR, TX. More information available from US FCC via Universal Licensing System and Coast Guard Vessel Documentation Center.

Last reported at 2014-Oct-01 10:28 UTC. Time now 2014-Oct-01 12:21 UTC.
Position N 29°45' W 095°06'.

Length 20 m; draft 2.9 m.

MMSI: 366874920.

Date/timePositionNaut miles runAvg speedWind from/ knotsBaromVisibWave heightAir tempDewpointWater temp
2014-Oct-01 10:28N 29°45' W 095°06'1 1.0
2014-Oct-01 09:33N 29°46' W 095°07'1 0.9
2014-Oct-01 08:27N 29°45' W 095°06'1 0.7
2014-Oct-01 07:33N 29°46' W 095°05'0 0.1
2014-Oct-01 06:27N 29°46' W 095°05'0 0.0
2014-Oct-01 05:30N 29°46' W 095°05'0 0.0
2014-Oct-01 04:23N 29°46' W 095°05'0 0.0
2014-Oct-01 03:09N 29°46' W 095°05'0 0.0
2014-Oct-01 01:29N 29°46' W 095°05'0 0.0
2014-Oct-01 00:29N 29°46' W 095°05'0 0.0
2014-Sep-30 23:31N 29°46' W 095°05'1 0.6
2014-Sep-30 22:33N 29°46' W 095°06'1 0.2
2014-Sep-30 20:08N 29°46' W 095°05'0 0.1
2014-Sep-30 19:33N 29°46' W 095°05'0 0.0
2014-Sep-30 11:33N 29°46' W 095°05'0 0.0
2014-Sep-30 00:13N 29°46' W 095°05'0 0.0
2014-Sep-29 23:33N 29°46' W 095°05'1 0.2
2014-Sep-29 19:27N 29°46' W 095°06'1 1.0
2014-Sep-29 18:33N 29°46' W 095°05'0 0.0
2014-Sep-29 17:21N 29°46' W 095°05'0 0.0
2014-Sep-29 16:33N 29°46' W 095°05'0 0.0
2014-Sep-29 15:32N 29°46' W 095°05'0 0.0
2014-Sep-29 14:33N 29°46' W 095°05'1 0.1
2014-Sep-29 00:11N 29°47' W 095°05'0 0.0
2014-Sep-28 23:33N 29°47' W 095°05'0 0.0
2014-Sep-28 22:33N 29°47' W 095°05'0 0.0
2014-Sep-28 21:33N 29°47' W 095°05'0 0.0
2014-Sep-28 20:33N 29°47' W 095°05'0 0.0
2014-Sep-28 19:33N 29°47' W 095°05'0 0.0
2014-Sep-28 18:33N 29°47' W 095°05'0 0.0
2014-Sep-28 17:33N 29°47' W 095°05'0 0.0
2014-Sep-28 16:33N 29°47' W 095°05'0 0.0
2014-Sep-28 15:33N 29°47' W 095°05'0 0.0
2014-Sep-28 14:33N 29°47' W 095°05'0 0.0
2014-Sep-28 13:33N 29°47' W 095°05'0 0.0
2014-Sep-28 08:23N 29°47' W 095°05'0 0.1
2014-Sep-28 07:29N 29°47' W 095°05'0 0.1
2014-Sep-28 05:33N 29°46' W 095°05'4 3.6
2014-Sep-28 04:33N 29°44' W 095°02'4 4.1
2014-Sep-28 03:33N 29°41' W 094°59'6 5.6
2014-Sep-28 02:33N 29°35' W 094°56'  
2014-Sep-22 19:21N 29°25' W 094°44'4 5.0
2014-Sep-22 18:28N 29°27' W 094°40'15 3.7
2014-Sep-22 14:27N 29°34' W 094°25'5 3.4
2014-Sep-22 13:06N 29°37' W 094°21'2 4.4
2014-Sep-22 12:33N 29°38' W 094°19'  

Dump ship's entire track history